Time;durP1;ratioP1;P1;durP2;ratioP2;P2;SDS_P1;SDS_P2;PMS_P1;PMS_P2;Temp;Humidity;BMP_temperature;BMP_pressure;BME280_temperature;BME280_humidity;BME280_pressure;Samples;Min_cycle;Max_cycle;Signal;HPM_P1;HPM_P2
2022/04/16 00:02:24;;;;;;;4.78;2.10;;;;;;;;;;5053799;28;20068;-72
2022/04/16 00:04:51;;;;;;;5.00;2.25;;;;;;;;;;5052063;28;20416;-73
2022/04/16 00:07:18;;;;;;;4.40;2.22;;;;;;;;;;5053580;28;20393;-73
2022/04/16 00:09:45;;;;;;;4.15;1.88;;;;;;;;;;5052169;28;20040;-74
2022/04/16 00:12:12;;;;;;;3.97;2.10;;;;;;;;;;5052643;28;20032;-73
2022/04/16 00:14:40;;;;;;;4.85;2.20;;;;;;;;;;5052062;28;20116;-72
2022/04/16 00:17:07;;;;;;;4.10;2.10;;;;;;;;;;5053581;28;20017;-74
2022/04/16 00:19:36;;;;;;;4.38;1.67;;;;;;;;;;5053365;28;20045;-74
2022/04/16 00:22:07;;;;;;;4.78;1.80;;;;;;;;;;5053170;28;20384;-72
2022/04/16 00:24:35;;;;;;;3.30;1.10;;;;;;;;;;5053268;28;20017;-74
2022/04/16 00:27:02;;;;;;;3.05;1.08;;;;;;;;;;5051705;28;20119;-75
2022/04/16 00:29:30;;;;;;;1.60;1.00;;;;;;;;;;5053162;28;20036;-72
2022/04/16 00:31:57;;;;;;;4.15;1.30;;;;;;;;;;5051868;28;20025;-76
2022/04/16 00:34:24;;;;;;;3.42;1.63;;;;;;;;;;5035358;28;20037;-73
2022/04/16 00:36:51;;;;;;;4.20;1.88;;;;;;;;;;5051779;28;20032;-74
2022/04/16 00:39:19;;;;;;;4.32;1.25;;;;;;;;;;5053110;28;20048;-74
2022/04/16 00:41:46;;;;;;;3.17;1.30;;;;;;;;;;5053144;28;20017;-74
2022/04/16 00:44:13;;;;;;;3.78;1.20;;;;;;;;;;5051809;28;20056;-74
2022/04/16 00:46:40;;;;;;;6.35;1.88;;;;;;;;;;5051608;28;20060;-74
2022/04/16 00:49:07;;;;;;;4.35;1.58;;;;;;;;;;5052930;28;20044;-73
2022/04/16 00:51:36;;;;;;;4.35;1.40;;;;;;;;;;5051619;28;20028;-72
2022/04/16 00:54:03;;;;;;;3.58;1.45;;;;;;;;;;5051520;28;20116;-72
2022/04/16 00:56:30;;;;;;;4.00;1.42;;;;;;;;;;5051418;28;20028;-72
2022/04/16 00:58:58;;;;;;;4.30;1.48;;;;;;;;;;5051465;28;20393;-72
2022/04/16 01:01:25;;;;;;;4.10;1.40;;;;;;;;;;5051404;28;20021;-72
2022/04/16 01:03:53;;;;;;;3.42;1.08;;;;;;;;;;5052640;28;20032;-72
2022/04/16 01:06:20;;;;;;;3.00;1.05;;;;;;;;;;5052069;28;20041;-73
2022/04/16 01:08:47;;;;;;;4.22;0.60;;;;;;;;;;5051394;28;20029;-73
2022/04/16 01:11:15;;;;;;;2.78;0.88;;;;;;;;;;5051279;28;20032;-73
2022/04/16 01:13:48;;;;;;;3.05;0.95;;;;;;;;;;5051233;28;20051;-72
2022/04/16 01:16:15;;;;;;;3.38;0.93;;;;;;;;;;5052511;28;20391;-73
2022/04/16 01:18:49;;;;;;;3.10;0.90;;;;;;;;;;5051240;28;20021;-71
2022/04/16 01:21:18;;;;;;;3.53;1.10;;;;;;;;;;5052478;28;20051;-72
2022/04/16 01:23:45;;;;;;;2.42;1.10;;;;;;;;;;5052398;28;20047;-72
2022/04/16 01:26:13;;;;;;;2.38;1.10;;;;;;;;;;5052484;28;20074;-72
2022/04/16 01:28:43;;;;;;;2.42;0.90;;;;;;;;;;5051128;28;20020;-72
2022/04/16 01:31:10;;;;;;;;;;;;;;;;;;5052793;28;20021;-73
2022/04/16 01:33:37;;;;;;;2.38;0.80;;;;;;;;;;5052323;28;19948;-72
2022/04/16 01:36:05;;;;;;;1.92;1.00;;;;;;;;;;5052410;28;20080;-72
2022/04/16 01:38:33;;;;;;;2.22;0.90;;;;;;;;;;5052268;28;20021;-71
2022/04/16 01:41:00;;;;;;;5.65;0.98;;;;;;;;;;5050859;28;20017;-72
2022/04/16 01:43:29;;;;;;;3.80;0.80;;;;;;;;;;5052206;28;20021;-73
2022/04/16 01:45:56;;;;;;;1.73;0.90;;;;;;;;;;5050858;28;20110;-72
2022/04/16 01:48:28;;;;;;;2.25;0.90;;;;;;;;;;5052025;28;20033;-71
2022/04/16 01:50:56;;;;;;;1.98;0.70;;;;;;;;;;5050851;28;20505;-71
2022/04/16 01:53:23;;;;;;;2.15;1.05;;;;;;;;;;5052062;28;20033;-71
2022/04/16 01:55:50;;;;;;;3.38;0.70;;;;;;;;;;5052095;28;20017;-70
2022/04/16 01:58:17;;;;;;;2.22;1.10;;;;;;;;;;5051936;28;20472;-71
2022/04/16 02:00:44;;;;;;;1.75;0.70;;;;;;;;;;5052240;28;20071;-73
2022/04/16 02:03:11;;;;;;;1.65;0.85;;;;;;;;;;5051974;28;20482;-72
2022/04/16 02:05:39;;;;;;;3.03;1.00;;;;;;;;;;5052017;28;20029;-73
2022/04/16 02:08:07;;;;;;;1.92;0.90;;;;;;;;;;5051930;28;20401;-71
2022/04/16 02:10:35;;;;;;;2.50;0.93;;;;;;;;;;5052183;28;20028;-72
2022/04/16 02:13:02;;;;;;;3.60;1.02;;;;;;;;;;5050448;28;20029;-73
2022/04/16 02:15:29;;;;;;;1.42;0.80;;;;;;;;;;5051961;28;20032;-73
2022/04/16 02:17:57;;;;;;;2.80;0.70;;;;;;;;;;5056015;28;20482;-72
2022/04/16 02:20:24;;;;;;;2.75;1.00;;;;;;;;;;5054916;28;20021;-73
2022/04/16 02:22:54;;;;;;;2.38;0.90;;;;;;;;;;5055789;28;20478;-73
2022/04/16 02:25:24;;;;;;;3.97;0.85;;;;;;;;;;5054539;28;20086;-74
2022/04/16 02:27:51;;;;;;;3.60;1.10;;;;;;;;;;5054501;28;20053;-73
2022/04/16 02:30:19;;;;;;;2.85;1.08;;;;;;;;;;5054548;28;20397;-72
2022/04/16 02:32:48;;;;;;;2.47;0.90;;;;;;;;;;5055536;28;20020;-72
2022/04/16 02:35:17;;;;;;;3.17;1.00;;;;;;;;;;5055642;28;20024;-72
2022/04/16 02:37:44;;;;;;;1.75;0.55;;;;;;;;;;5055553;28;20025;-72
2022/04/16 02:40:12;;;;;;;2.95;0.95;;;;;;;;;;5054237;28;20584;-74
2022/04/16 02:42:41;;;;;;;4.60;1.55;;;;;;;;;;5054035;28;20029;-74
2022/04/16 02:47:56;;;;;;;6.25;1.50;;;;;;;;;;5055290;28;20497;-74
2022/04/16 02:50:25;;;;;;;5.97;1.52;;;;;;;;;;5053822;28;20401;-73
2022/04/16 02:52:55;;;;;;;6.60;2.00;;;;;;;;;;5053660;28;20051;-74
2022/04/16 02:55:23;;;;;;;4.22;1.50;;;;;;;;;;5053677;28;20481;-74
2022/04/16 02:57:50;;;;;;;4.88;1.95;;;;;;;;;;5054968;28;20096;-73
2022/04/16 03:00:20;;;;;;;3.65;1.80;;;;;;;;;;5053619;28;20494;-74
2022/04/16 03:02:47;;;;;;;4.65;1.35;;;;;;;;;;5053702;28;20032;-73
2022/04/16 03:05:15;;;;;;;6.82;1.60;;;;;;;;;;5054759;28;20036;-72
2022/04/16 03:07:42;;;;;;;3.20;1.30;;;;;;;;;;5053622;28;20116;-74
2022/04/16 03:10:10;;;;;;;3.47;1.15;;;;;;;;;;5053447;28;20021;-74
2022/04/16 03:12:51;;;;;;;3.50;1.10;;;;;;;;;;5054755;28;20017;-73
2022/04/16 03:18:05;;;;;;;4.97;1.23;;;;;;;;;;5054846;28;20032;-73
2022/04/16 03:20:32;;;;;;;1.25;0.80;;;;;;;;;;5053340;28;20025;-73
2022/04/16 03:23:00;;;;;;;2.78;0.98;;;;;;;;;;5053359;28;20170;-73
2022/04/16 03:25:28;;;;;;;6.13;1.20;;;;;;;;;;5054656;28;20028;-74
2022/04/16 03:27:56;;;;;;;3.67;1.10;;;;;;;;;;5054227;28;20488;-73
2022/04/16 03:30:26;;;;;;;3.08;1.10;;;;;;;;;;5053130;28;20545;-74
2022/04/16 03:32:53;;;;;;;3.20;1.40;;;;;;;;;;5053471;28;20075;-74
2022/04/16 03:35:22;;;;;;;4.22;1.00;;;;;;;;;;5053021;28;20040;-74
2022/04/16 03:37:49;;;;;;;3.80;1.55;;;;;;;;;;5054408;28;20074;-73
2022/04/16 03:40:17;;;;;;;4.95;1.52;;;;;;;;;;5052931;28;20047;-73
2022/04/16 03:42:47;;;;;;;6.68;1.45;;;;;;;;;;5053011;28;20029;-73
2022/04/16 03:45:24;;;;;;;8.80;1.83;;;;;;;;;;5054116;28;20017;-73
2022/04/16 03:47:52;;;;;;;5.22;1.80;;;;;;;;;;5054063;28;20374;-72
2022/04/16 03:50:20;;;;;;;3.35;1.30;;;;;;;;;;5053992;28;20092;-74
2022/04/16 03:52:48;;;;;;;4.00;1.40;;;;;;;;;;5054080;28;20482;-74
2022/04/16 04:00:56;;;;;;;6.35;1.55;;;;;;;;;;5054242;28;20151;-73
2022/04/16 04:03:23;;;;;;;7.82;1.88;;;;;;;;;;5054038;28;20043;-73
2022/04/16 04:05:53;;;;;;;6.18;1.60;;;;;;;;;;5052364;28;20412;-74
2022/04/16 04:08:21;;;;;;;4.93;1.38;;;;;;;;;;5053865;28;20029;-73
2022/04/16 04:10:48;;;;;;;3.47;1.00;;;;;;;;;;5053698;28;20496;-73
2022/04/16 04:13:16;;;;;;;4.05;1.77;;;;;;;;;;5052265;28;20029;-72
2022/04/16 04:15:44;;;;;;;5.97;1.55;;;;;;;;;;5052148;28;20473;-74
2022/04/16 04:18:11;;;;;;;4.20;1.67;;;;;;;;;;5052124;28;20029;-74
2022/04/16 04:20:38;;;;;;;5.65;1.70;;;;;;;;;;5052142;28;20103;-74
2022/04/16 04:23:06;;;;;;;4.10;1.38;;;;;;;;;;5052183;28;20043;-73
2022/04/16 04:25:33;;;;;;;3.65;1.27;;;;;;;;;;5052084;28;20075;-73
2022/04/16 04:28:00;;;;;;;4.20;1.25;;;;;;;;;;5052044;28;20481;-73
2022/04/16 04:30:29;;;;;;;6.35;1.55;;;;;;;;;;5053114;28;20029;-72
2022/04/16 04:32:57;;;;;;;5.00;1.10;;;;;;;;;;5051981;28;20063;-73
2022/04/16 04:35:24;;;;;;;1.80;0.90;;;;;;;;;;5051772;28;20615;-72
2022/04/16 04:37:51;;;;;;;5.68;1.10;;;;;;;;;;5053201;28;20477;-73
2022/04/16 04:40:18;;;;;;;4.60;1.20;;;;;;;;;;5050897;28;20155;-73
2022/04/16 04:42:45;;;;;;;4.00;1.20;;;;;;;;;;5053162;28;20029;-74
2022/04/16 04:45:14;;;;;;;5.18;1.10;;;;;;;;;;5053104;28;20098;-73
2022/04/16 04:47:41;;;;;;;3.72;1.13;;;;;;;;;;5052759;28;20070;-73
2022/04/16 04:50:09;;;;;;;4.50;1.10;;;;;;;;;;5052998;28;20485;-73
2022/04/16 04:52:40;;;;;;;2.92;0.90;;;;;;;;;;5051446;28;20059;-73
2022/04/16 04:55:10;;;;;;;3.72;1.20;;;;;;;;;;5052795;28;20428;-73
2022/04/16 04:57:38;;;;;;;3.20;1.05;;;;;;;;;;5051360;28;20028;-74
2022/04/16 05:00:06;;;;;;;2.75;0.88;;;;;;;;;;5052800;28;20029;-74
2022/04/16 05:02:43;;;;;;;3.72;0.80;;;;;;;;;;5051332;28;20017;-73
2022/04/16 05:05:10;;;;;;;2.72;0.90;;;;;;;;;;5051290;28;20029;-73
2022/04/16 05:07:38;;;;;;;2.92;0.82;;;;;;;;;;5052487;28;20037;-74
2022/04/16 05:10:05;;;;;;;4.18;1.08;;;;;;;;;;5051316;28;20025;-73
2022/04/16 05:12:32;;;;;;;3.63;0.80;;;;;;;;;;5052543;28;20057;-73
2022/04/16 05:14:59;;;;;;;2.75;0.88;;;;;;;;;;5052560;28;20100;-74
2022/04/16 05:17:27;;;;;;;2.60;0.90;;;;;;;;;;5051109;28;20508;-73
2022/04/16 05:19:54;;;;;;;4.07;0.82;;;;;;;;;;5052422;28;20135;-73
2022/04/16 05:22:21;;;;;;;4.70;0.90;;;;;;;;;;5050943;28;20435;-73
2022/04/16 05:24:48;;;;;;;3.25;0.90;;;;;;;;;;5052549;28;20104;-73
2022/04/16 05:27:15;;;;;;;2.17;0.93;;;;;;;;;;5050965;28;20029;-74
2022/04/16 05:29:56;;;;;;;2.92;1.00;;;;;;;;;;5050747;28;20048;-75
2022/04/16 05:32:23;;;;;;;3.20;0.70;;;;;;;;;;5052104;28;20017;-74
2022/04/16 05:34:51;;;;;;;2.50;0.90;;;;;;;;;;5052211;28;20028;-74
2022/04/16 05:37:18;;;;;;;2.72;0.90;;;;;;;;;;5052130;28;20413;-73
2022/04/16 05:39:45;;;;;;;2.75;0.70;;;;;;;;;;5052059;28;20089;-73
2022/04/16 05:42:13;;;;;;;3.85;0.77;;;;;;;;;;5051998;28;20021;-73
2022/04/16 05:44:40;;;;;;;2.45;0.90;;;;;;;;;;5052033;28;20066;-73
2022/04/16 05:47:07;;;;;;;4.25;0.73;;;;;;;;;;5050614;28;20024;-74
2022/04/16 05:49:34;;;;;;;4.10;1.30;;;;;;;;;;5050401;28;20041;-73
2022/04/16 05:52:02;;;;;;;2.75;0.90;;;;;;;;;;5050283;28;20469;-74
2022/04/16 05:54:29;;;;;;;2.95;0.70;;;;;;;;;;5050323;28;20493;-73
2022/04/16 05:56:57;;;;;;;1.83;0.73;;;;;;;;;;5050475;28;20431;-73
2022/04/16 05:59:24;;;;;;;2.67;0.73;;;;;;;;;;5050455;28;20021;-74
2022/04/16 06:01:51;;;;;;;1.73;0.60;;;;;;;;;;5050433;28;20504;-72
2022/04/16 06:04:18;;;;;;;4.45;1.10;;;;;;;;;;5050537;28;20024;-73
2022/04/16 06:06:46;;;;;;;3.08;0.80;;;;;;;;;;5050582;28;20025;-73
2022/04/16 06:09:14;;;;;;;2.70;0.80;;;;;;;;;;5051802;28;20021;-74
2022/04/16 06:11:42;;;;;;;2.42;1.05;;;;;;;;;;5051909;28;20033;-73
2022/04/16 06:14:10;;;;;;;2.75;0.80;;;;;;;;;;5051688;28;20029;-73
2022/04/16 06:16:37;;;;;;;3.65;1.13;;;;;;;;;;5051827;28;20017;-73
2022/04/16 06:19:04;;;;;;;2.20;0.80;;;;;;;;;;5051792;28;20057;-73
2022/04/16 06:21:31;;;;;;;4.40;1.23;;;;;;;;;;5051873;28;20074;-73
2022/04/16 06:23:58;;;;;;;2.17;0.90;;;;;;;;;;5050234;28;20162;-73
2022/04/16 06:26:26;;;;;;;3.70;0.70;;;;;;;;;;5050512;28;20029;-74
2022/04/16 06:28:53;;;;;;;3.70;0.80;;;;;;;;;;5051702;28;20110;-73
2022/04/16 06:31:20;;;;;;;2.15;0.70;;;;;;;;;;5050470;28;20400;-73
2022/04/16 06:33:48;;;;;;;3.30;1.05;;;;;;;;;;5051489;28;20029;-73
2022/04/16 06:36:15;;;;;;;4.63;0.90;;;;;;;;;;5050392;28;20092;-73
2022/04/16 06:38:43;;;;;;;3.88;1.20;;;;;;;;;;5050263;28;20541;-73
2022/04/16 06:41:10;;;;;;;1.90;1.00;;;;;;;;;;5051630;28;20024;-73
2022/04/16 06:43:37;;;;;;;3.95;1.00;;;;;;;;;;5051564;28;20096;-72
2022/04/16 06:46:04;;;;;;;3.97;1.10;;;;;;;;;;5051486;28;20021;-73
2022/04/16 06:48:31;;;;;;;1.75;0.88;;;;;;;;;;5051300;28;20056;-73
2022/04/16 06:50:58;;;;;;;2.90;0.90;;;;;;;;;;5050086;28;20093;-73
2022/04/16 06:53:28;;;;;;;4.03;0.90;;;;;;;;;;5050041;28;20029;-74
2022/04/16 06:56:00;;;;;;;3.63;1.08;;;;;;;;;;5050018;28;20017;-71
2022/04/16 06:58:31;;;;;;;2.80;0.80;;;;;;;;;;5050154;28;20052;-73
2022/04/16 07:00:58;;;;;;;3.13;0.77;;;;;;;;;;5051653;28;20323;-73
2022/04/16 07:03:26;;;;;;;3.13;0.98;;;;;;;;;;5052742;28;20416;-72
2022/04/16 07:05:53;;;;;;;1.80;0.60;;;;;;;;;;5054913;28;20155;-73
2022/04/16 07:08:20;;;;;;;1.85;0.82;;;;;;;;;;5055028;28;20507;-73
2022/04/16 07:10:47;;;;;;;2.88;0.98;;;;;;;;;;5054939;28;20017;-73
2022/04/16 07:13:14;;;;;;;2.63;0.80;;;;;;;;;;5054855;28;20382;-73
2022/04/16 07:15:42;;;;;;;2.67;0.90;;;;;;;;;;5053497;28;20028;-74
2022/04/16 07:18:10;;;;;;;2.45;1.02;;;;;;;;;;5053467;28;20037;-74
2022/04/16 07:20:37;;;;;;;4.35;1.63;;;;;;;;;;5054776;28;20045;-74
2022/04/16 07:23:05;;;;;;;2.22;2.03;;;;;;;;;;5054651;28;20013;-71
2022/04/16 07:25:32;;;;;;;4.20;1.60;;;;;;;;;;5054564;28;20074;-72
2022/04/16 07:27:59;;;;;;;2.22;1.10;;;;;;;;;;5053311;28;20044;-72
2022/04/16 07:30:27;;;;;;;2.97;1.20;;;;;;;;;;5054583;28;20053;-72
2022/04/16 07:32:54;;;;;;;3.28;1.10;;;;;;;;;;5053075;28;20078;-73
2022/04/16 07:35:22;;;;;;;3.05;1.30;;;;;;;;;;5053079;28;20107;-71
2022/04/16 07:37:51;;;;;;;1.95;0.98;;;;;;;;;;5053047;28;20017;-71
2022/04/16 07:40:19;;;;;;;3.80;1.42;;;;;;;;;;5053028;28;20028;-71
2022/04/16 07:42:46;;;;;;;2.25;1.17;;;;;;;;;;5054354;28;20017;-71
2022/04/16 07:45:13;;;;;;;2.67;1.30;;;;;;;;;;5054188;28;20032;-72
2022/04/16 07:47:40;;;;;;;2.60;1.38;;;;;;;;;;5054091;28;20110;-73
2022/04/16 07:50:08;;;;;;;4.57;1.30;;;;;;;;;;5052910;28;20051;-71
2022/04/16 07:52:35;;;;;;;8.10;1.85;;;;;;;;;;5054105;28;20035;-71
2022/04/16 07:55:02;;;;;;;3.97;1.50;;;;;;;;;;5052516;28;20073;-72
2022/04/16 07:57:29;;;;;;;5.05;2.08;;;;;;;;;;5053735;28;20477;-72
2022/04/16 07:59:56;;;;;;;5.93;2.58;;;;;;;;;;5053972;28;20032;-72
2022/04/16 08:02:24;;;;;;;4.75;2.60;;;;;;;;;;5052640;28;20044;-71
2022/04/16 08:04:51;;;;;;;4.40;1.90;;;;;;;;;;5052563;28;20443;-71
2022/04/16 08:07:18;;;;;;;3.08;1.83;;;;;;;;;;5052692;28;20029;-72
2022/04/16 08:09:45;;;;;;;2.97;1.67;;;;;;;;;;5052592;28;20051;-71
2022/04/16 08:12:13;;;;;;;5.28;1.92;;;;;;;;;;5052454;28;20025;-71
2022/04/16 08:14:40;;;;;;;4.15;2.13;;;;;;;;;;5053411;28;20025;-72
2022/04/16 08:17:07;;;;;;;4.43;1.85;;;;;;;;;;5053719;28;20021;-73
2022/04/16 08:19:34;;;;;;;3.53;1.92;;;;;;;;;;5053564;28;20029;-71
2022/04/16 08:22:07;;;;;;;7.35;2.40;;;;;;;;;;5053708;28;20036;-72
2022/04/16 08:27:05;;;;;;;5.88;1.80;;;;;;;;;;5053921;28;20036;-73
2022/04/16 08:29:32;;;;;;;5.82;2.70;;;;;;;;;;5052254;28;20117;-72
2022/04/16 08:31:59;;;;;;;4.45;2.22;;;;;;;;;;5052145;28;20394;-72
2022/04/16 08:34:26;;;;;;;5.35;2.67;;;;;;;;;;5053340;28;20115;-72
2022/04/16 08:36:54;;;;;;;4.82;2.50;;;;;;;;;;5053418;28;20498;-71
2022/04/16 08:39:21;;;;;;;5.10;2.40;;;;;;;;;;5051858;28;20091;-72
2022/04/16 08:41:49;;;;;;;4.65;2.33;;;;;;;;;;5051936;28;20017;-71
2022/04/16 08:44:19;;;;;;;4.72;2.97;;;;;;;;;;5053226;28;20044;-72
2022/04/16 08:46:46;;;;;;;9.68;2.90;;;;;;;;;;5053178;28;20024;-71
2022/04/16 08:49:15;;;;;;;5.90;3.90;;;;;;;;;;5052825;28;20048;-72
2022/04/16 08:51:44;;;;;;;7.18;4.38;;;;;;;;;;5051577;28;20374;-71
2022/04/16 08:54:12;;;;;;;7.90;3.90;;;;;;;;;;5052884;28;20044;-71
2022/04/16 08:56:39;;;;;;;8.32;5.15;;;;;;;;;;5052942;28;20017;-71
2022/04/16 08:59:06;;;;;;;7.78;4.88;;;;;;;;;;5052821;28;20021;-71
2022/04/16 09:01:36;;;;;;;7.85;5.22;;;;;;;;;;5051567;28;20465;-72
2022/04/16 09:04:03;;;;;;;6.07;4.20;;;;;;;;;;5051497;28;20511;-72
2022/04/16 09:06:31;;;;;;;7.88;4.65;;;;;;;;;;5052794;28;20481;-71
2022/04/16 09:08:58;;;;;;;7.88;4.00;;;;;;;;;;5053293;28;20416;-71
2022/04/16 09:11:25;;;;;;;6.68;4.20;;;;;;;;;;5052562;28;20051;-71
2022/04/16 09:13:56;;;;;;;7.30;3.85;;;;;;;;;;5052555;28;20021;-72
2022/04/16 09:16:22;;;;;;;;;;;;;;;;;;5052907;28;20096;-72
2022/04/16 09:18:56;;;;;;;5.32;3.58;;;;;;;;;;5051145;28;19912;-72
2022/04/16 09:21:28;;;;;;;6.35;3.90;;;;;;;;;;5052465;28;20021;-72
2022/04/16 09:24:01;;;;;;;5.55;3.60;;;;;;;;;;5050953;28;20028;-72
2022/04/16 09:26:28;;;;;;;7.75;3.78;;;;;;;;;;5051753;28;20515;-72
2022/04/16 09:28:56;;;;;;;7.13;3.85;;;;;;;;;;5052224;28;20087;-73
2022/04/16 09:31:29;;;;;;;5.43;3.65;;;;;;;;;;5051058;28;20067;-71
2022/04/16 09:33:56;;;;;;;5.97;3.35;;;;;;;;;;5050777;28;20468;-73
2022/04/16 09:36:24;;;;;;;6.00;4.10;;;;;;;;;;5050857;28;20029;-71
2022/04/16 09:38:51;;;;;;;6.78;4.13;;;;;;;;;;5052049;28;20021;-72
2022/04/16 09:41:19;;;;;;;5.78;3.83;;;;;;;;;;5050749;28;20150;-71
2022/04/16 09:43:46;;;;;;;8.25;4.60;;;;;;;;;;5050732;28;20397;-71
2022/04/16 09:46:14;;;;;;;7.10;3.97;;;;;;;;;;5052101;28;20021;-71
2022/04/16 09:48:41;;;;;;;5.63;4.10;;;;;;;;;;5051937;28;20390;-71
2022/04/16 09:51:08;;;;;;;8.32;4.10;;;;;;;;;;5051935;28;20569;-71
2022/04/16 09:53:38;;;;;;;8.05;4.47;;;;;;;;;;5051909;28;20029;-72
2022/04/16 09:56:07;;;;;;;7.72;4.65;;;;;;;;;;5051958;28;20108;-71
2022/04/16 09:58:40;;;;;;;6.32;4.43;;;;;;;;;;5051879;28;20143;-71
2022/04/16 10:01:10;;;;;;;7.97;4.68;;;;;;;;;;5052030;28;20021;-72
2022/04/16 10:03:37;;;;;;;7.82;4.65;;;;;;;;;;5051809;28;20021;-71
2022/04/16 10:06:04;;;;;;;6.63;4.30;;;;;;;;;;5051472;28;20487;-71
2022/04/16 10:08:32;;;;;;;6.88;4.63;;;;;;;;;;5051794;28;20118;-72
2022/04/16 10:11:03;;;;;;;7.63;4.43;;;;;;;;;;5051812;28;20109;-71
2022/04/16 10:13:33;;;;;;;5.30;4.35;;;;;;;;;;5051808;28;20029;-73
2022/04/16 10:16:05;;;;;;;8.73;4.80;;;;;;;;;;5050424;28;20029;-71
2022/04/16 10:18:34;;;;;;;6.20;4.47;;;;;;;;;;5051745;28;20250;-72
2022/04/16 10:21:02;;;;;;;6.07;4.47;;;;;;;;;;5050455;28;20048;-72
2022/04/16 10:23:33;;;;;;;5.50;3.97;;;;;;;;;;5051786;28;20532;-73
2022/04/16 10:26:05;;;;;;;7.30;4.95;;;;;;;;;;5051698;28;20025;-71
2022/04/16 10:28:42;;;;;;;9.20;4.90;;;;;;;;;;5051691;28;20112;-73
2022/04/16 10:31:21;;;;;;;9.02;4.72;;;;;;;;;;5051673;28;20119;-73
2022/04/16 10:34:09;;;;;;;6.38;4.50;;;;;;;;;;5050320;28;20104;-72
2022/04/16 10:36:38;;;;;;;6.45;4.82;;;;;;;;;;5051534;28;20044;-73
2022/04/16 10:39:15;;;;;;;6.03;4.53;;;;;;;;;;5054109;28;20092;-72
2022/04/16 10:41:53;;;;;;;7.97;4.72;;;;;;;;;;5055413;28;20067;-73
2022/04/16 10:44:21;;;;;;;7.55;4.60;;;;;;;;;;5054090;28;20124;-73
2022/04/16 10:46:48;;;;;;;7.00;4.97;;;;;;;;;;5054027;28;20028;-73
2022/04/16 10:49:19;;;;;;;6.85;4.65;;;;;;;;;;5055180;28;20124;-72
2022/04/16 10:51:47;;;;;;;10.80;5.53;;;;;;;;;;5055362;28;20017;-72
2022/04/16 10:54:15;;;;;;;6.05;4.25;;;;;;;;;;5053889;28;20033;-74
2022/04/16 10:56:52;;;;;;;7.18;5.00;;;;;;;;;;5055283;28;20026;-72
2022/04/16 10:59:19;;;;;;;7.32;5.13;;;;;;;;;;5055158;28;20473;-72
2022/04/16 11:01:58;;;;;;;6.97;5.10;;;;;;;;;;5055045;28;20021;-72
2022/04/16 11:04:25;;;;;;;7.28;5.50;;;;;;;;;;5055097;28;20530;-72
2022/04/16 11:06:58;;;;;;;7.13;5.10;;;;;;;;;;5055132;28;20032;-73
2022/04/16 11:09:25;;;;;;;8.02;5.53;;;;;;;;;;5054997;28;20049;-72
2022/04/16 11:11:52;;;;;;;9.43;6.18;;;;;;;;;;5054868;28;20032;-72
2022/04/16 11:14:20;;;;;;;10.85;5.80;;;;;;;;;;5053400;28;20405;-72
2022/04/16 11:16:48;;;;;;;10.38;6.53;;;;;;;;;;5054894;28;20017;-72
2022/04/16 11:19:16;;;;;;;10.85;6.03;;;;;;;;;;5053513;28;20021;-72
2022/04/16 11:21:44;;;;;;;10.68;6.18;;;;;;;;;;5053400;28;20025;-72
2022/04/16 11:24:11;;;;;;;6.72;6.05;;;;;;;;;;5053335;28;20052;-72
2022/04/16 11:35:13;;;;;;;9.00;5.63;;;;;;;;;;5054414;28;20397;-72
2022/04/16 11:37:40;;;;;;;8.23;5.22;;;;;;;;;;5054482;28;20608;-73
2022/04/16 11:40:09;;;;;;;6.13;5.18;;;;;;;;;;5053088;28;20393;-71
2022/04/16 11:42:36;;;;;;;7.70;5.40;;;;;;;;;;5054365;28;20393;-71
2022/04/16 11:45:06;;;;;;;6.93;5.20;;;;;;;;;;5054401;28;20029;-71
2022/04/16 11:47:36;;;;;;;8.55;5.53;;;;;;;;;;5052703;28;20052;-71
2022/04/16 11:50:06;;;;;;;8.55;5.60;;;;;;;;;;5053652;28;20025;-72
2022/04/16 11:52:34;;;;;;;10.23;5.83;;;;;;;;;;5054205;28;20508;-71
2022/04/16 11:55:06;;;;;;;8.05;5.30;;;;;;;;;;5052630;28;20037;-72
2022/04/16 11:57:34;;;;;;;8.68;5.80;;;;;;;;;;5052705;28;20374;-72
2022/04/16 12:00:06;;;;;;;7.60;5.35;;;;;;;;;;5054056;28;20021;-72
2022/04/16 12:02:35;;;;;;;8.10;5.57;;;;;;;;;;5053881;28;20104;-71
2022/04/16 12:05:08;;;;;;;7.43;5.38;;;;;;;;;;5053807;28;20029;-72
2022/04/16 12:07:35;;;;;;;6.68;5.43;;;;;;;;;;5053806;28;20389;-71
2022/04/16 12:10:05;;;;;;;6.38;5.63;;;;;;;;;;5053799;28;20024;-72
2022/04/16 12:12:42;;;;;;;5.97;5.32;;;;;;;;;;5053778;28;20025;-72
2022/04/16 12:15:09;;;;;;;8.50;6.10;;;;;;;;;;5052353;28;20033;-71
2022/04/16 12:17:39;;;;;;;8.85;5.97;;;;;;;;;;5053610;28;20092;-72
2022/04/16 12:20:08;;;;;;;7.93;5.35;;;;;;;;;;5053709;28;20408;-72
2022/04/16 12:22:49;;;;;;;8.85;5.78;;;;;;;;;;5052055;28;20027;-72
2022/04/16 12:25:17;;;;;;;9.75;5.63;;;;;;;;;;5053423;28;20031;-72
2022/04/16 12:27:45;;;;;;;8.10;5.40;;;;;;;;;;5052055;28;20033;-72
2022/04/16 12:30:16;;;;;;;6.40;5.80;;;;;;;;;;5053517;28;20055;-71
2022/04/16 12:32:54;;;;;;;8.20;5.40;;;;;;;;;;5053395;28;20024;-72
2022/04/16 12:35:21;;;;;;;8.35;5.57;;;;;;;;;;5052006;28;20029;-72
2022/04/16 12:37:49;;;;;;;7.57;5.50;;;;;;;;;;5053246;28;20020;-71
2022/04/16 12:40:16;;;;;;;8.98;5.60;;;;;;;;;;5053210;28;20020;-71
2022/04/16 12:42:43;;;;;;;8.40;5.88;;;;;;;;;;5053238;28;20028;-72
2022/04/16 12:45:10;;;;;;;9.43;5.53;;;;;;;;;;5053223;28;20485;-72
2022/04/16 12:47:37;;;;;;;9.82;5.97;;;;;;;;;;5051633;28;20037;-72
2022/04/16 12:50:05;;;;;;;6.97;5.60;;;;;;;;;;5051774;28;20412;-72
2022/04/16 12:52:34;;;;;;;6.88;5.38;;;;;;;;;;5053025;28;20366;-72
2022/04/16 12:55:01;;;;;;;6.90;5.47;;;;;;;;;;5053059;28;20052;-71
2022/04/16 12:57:28;;;;;;;8.05;5.28;;;;;;;;;;5053043;28;20477;-72
2022/04/16 12:59:58;;;;;;;9.07;5.68;;;;;;;;;;5052437;28;20051;-72
2022/04/16 13:02:26;;;;;;;6.03;5.43;;;;;;;;;;5051100;28;20021;-72
2022/04/16 13:04:54;;;;;;;6.07;5.38;;;;;;;;;;5051544;28;20500;-72
2022/04/16 13:07:22;;;;;;;8.13;5.40;;;;;;;;;;5051460;28;20056;-72
2022/04/16 13:09:50;;;;;;;9.68;5.72;;;;;;;;;;5051394;28;20489;-73
2022/04/16 13:12:20;;;;;;;6.85;5.22;;;;;;;;;;5052731;28;20035;-72
2022/04/16 13:14:48;;;;;;;6.20;5.38;;;;;;;;;;5052892;28;20139;-72
2022/04/16 13:17:15;;;;;;;8.63;6.25;;;;;;;;;;5051357;28;20116;-72
2022/04/16 13:19:42;;;;;;;7.32;6.15;;;;;;;;;;5052578;28;20024;-72
2022/04/16 13:22:10;;;;;;;8.27;5.93;;;;;;;;;;5052443;28;20017;-72
2022/04/16 13:24:37;;;;;;;7.40;5.80;;;;;;;;;;5052486;28;20053;-72
2022/04/16 13:27:08;;;;;;;6.10;5.47;;;;;;;;;;5051085;28;20029;-72
2022/04/16 13:29:36;;;;;;;8.43;5.72;;;;;;;;;;5052366;28;20079;-71
2022/04/16 13:32:03;;;;;;;8.32;6.55;;;;;;;;;;5051002;28;20519;-72
2022/04/16 13:34:30;;;;;;;9.82;7.28;;;;;;;;;;5051000;28;20128;-72
2022/04/16 13:36:57;;;;;;;10.07;7.13;;;;;;;;;;5051049;28;20021;-71
2022/04/16 13:42:10;;;;;;;11.73;8.85;;;;;;;;;;5052287;28;20412;-72
2022/04/16 13:44:37;;;;;;;14.35;11.05;;;;;;;;;;5052168;28;20021;-72
2022/04/16 13:47:05;;;;;;;14.48;12.48;;;;;;;;;;5052157;28;20017;-72
2022/04/16 13:49:32;;;;;;;16.70;11.60;;;;;;;;;;5050683;28;20069;-71
2022/04/16 13:51:59;;;;;;;10.80;9.70;;;;;;;;;;5052055;28;20035;-72
2022/04/16 13:54:26;;;;;;;10.50;8.27;;;;;;;;;;5050681;28;20025;-72
2022/04/16 13:56:54;;;;;;;9.30;8.18;;;;;;;;;;5052090;28;20074;-72
2022/04/16 13:59:21;;;;;;;10.35;7.22;;;;;;;;;;5052012;28;20017;-71
2022/04/16 14:01:50;;;;;;;8.60;6.70;;;;;;;;;;5051989;28;20044;-71
2022/04/16 14:04:17;;;;;;;9.77;6.13;;;;;;;;;;5050558;28;20025;-72
2022/04/16 14:06:45;;;;;;;6.97;5.72;;;;;;;;;;5050611;28;20120;-72
2022/04/16 14:09:12;;;;;;;12.13;6.88;;;;;;;;;;5051980;28;20429;-72
2022/04/16 14:11:41;;;;;;;9.35;6.43;;;;;;;;;;5050957;28;20056;-72
2022/04/16 14:14:08;;;;;;;7.97;6.05;;;;;;;;;;5054608;28;20025;-72
2022/04/16 14:16:36;;;;;;;9.27;5.82;;;;;;;;;;5056033;28;20384;-72
2022/04/16 14:19:05;;;;;;;10.32;6.32;;;;;;;;;;5054594;28;20025;-72
2022/04/16 14:21:32;;;;;;;7.40;5.35;;;;;;;;;;5054586;28;20047;-72
2022/04/16 14:23:59;;;;;;;8.10;5.95;;;;;;;;;;5055793;28;20051;-72
2022/04/16 14:26:26;;;;;;;7.00;6.03;;;;;;;;;;5054594;28;20469;-72
2022/04/16 14:28:53;;;;;;;6.53;5.47;;;;;;;;;;5055723;28;20032;-72
2022/04/16 14:31:21;;;;;;;7.97;5.47;;;;;;;;;;5055762;28;20108;-72
2022/04/16 14:33:49;;;;;;;7.47;6.05;;;;;;;;;;5055573;28;20058;-73
2022/04/16 14:36:18;;;;;;;7.85;5.78;;;;;;;;;;5054392;28;20024;-71
2022/04/16 14:38:46;;;;;;;8.07;6.43;;;;;;;;;;5055610;28;20397;-71
2022/04/16 14:41:13;;;;;;;9.13;6.53;;;;;;;;;;5054296;28;20021;-71
2022/04/16 14:43:50;;;;;;;6.70;5.90;;;;;;;;;;5055630;28;20192;-72
2022/04/16 14:46:18;;;;;;;7.80;6.30;;;;;;;;;;5054233;28;20025;-71
2022/04/16 14:48:45;;;;;;;9.65;6.40;;;;;;;;;;5053889;28;20041;-72
2022/04/16 14:51:13;;;;;;;9.02;6.30;;;;;;;;;;5054116;28;20029;-71
2022/04/16 14:53:40;;;;;;;6.78;5.90;;;;;;;;;;5053950;28;20111;-72
2022/04/16 14:56:07;;;;;;;10.00;7.35;;;;;;;;;;5054080;28;20021;-72
2022/04/16 14:58:36;;;;;;;10.55;7.90;;;;;;;;;;5055183;28;20104;-72
2022/04/16 15:01:04;;;;;;;10.52;7.88;;;;;;;;;;5055209;28;20056;-72
2022/04/16 15:03:31;;;;;;;9.18;7.28;;;;;;;;;;5055003;28;20029;-72
2022/04/16 15:06:00;;;;;;;13.05;9.00;;;;;;;;;;5055196;28;20431;-72
2022/04/16 15:08:27;;;;;;;12.38;9.63;;;;;;;;;;5055240;28;20028;-71
2022/04/16 15:10:54;;;;;;;11.27;9.73;;;;;;;;;;5055156;28;20123;-72
2022/04/16 15:13:21;;;;;;;10.30;9.27;;;;;;;;;;5053660;28;20397;-73
2022/04/16 15:15:48;;;;;;;14.30;10.70;;;;;;;;;;5054937;28;20021;-71